sensor_id;sensor_type;location;lat;lon;timestamp;P1;durP1;ratioP1;P2;durP2;ratioP2
59233;SDS011;60776;51.702;7.462;2023-07-29T00:00:57;3.03;;;2.72;;
59233;SDS011;60776;51.702;7.462;2023-07-29T00:03:25;4.20;;;2.63;;
59233;SDS011;60776;51.702;7.462;2023-07-29T00:05:50;3.20;;;2.90;;
59233;SDS011;60776;51.702;7.462;2023-07-29T00:08:16;3.63;;;2.78;;
59233;SDS011;60776;51.702;7.462;2023-07-29T00:10:42;3.42;;;2.65;;
59233;SDS011;60776;51.702;7.462;2023-07-29T00:13:07;3.38;;;2.63;;
59233;SDS011;60776;51.702;7.462;2023-07-29T00:15:33;3.45;;;3.08;;
59233;SDS011;60776;51.702;7.462;2023-07-29T00:17:59;2.70;;;2.50;;
59233;SDS011;60776;51.702;7.462;2023-07-29T00:20:24;4.47;;;2.88;;
59233;SDS011;60776;51.702;7.462;2023-07-29T00:22:50;2.53;;;2.28;;
59233;SDS011;60776;51.702;7.462;2023-07-29T00:25:18;2.65;;;2.42;;
59233;SDS011;60776;51.702;7.462;2023-07-29T00:27:44;2.67;;;2.47;;
59233;SDS011;60776;51.702;7.462;2023-07-29T00:30:10;2.83;;;2.60;;
59233;SDS011;60776;51.702;7.462;2023-07-29T00:32:36;2.63;;;2.45;;
59233;SDS011;60776;51.702;7.462;2023-07-29T00:35:02;5.32;;;2.35;;
59233;SDS011;60776;51.702;7.462;2023-07-29T00:37:30;2.47;;;2.30;;
59233;SDS011;60776;51.702;7.462;2023-07-29T00:39:56;3.33;;;2.63;;
59233;SDS011;60776;51.702;7.462;2023-07-29T00:42:25;3.67;;;2.60;;
59233;SDS011;60776;51.702;7.462;2023-07-29T00:44:51;2.90;;;2.55;;
59233;SDS011;60776;51.702;7.462;2023-07-29T00:47:16;3.95;;;2.67;;
59233;SDS011;60776;51.702;7.462;2023-07-29T00:49:44;3.08;;;2.45;;
59233;SDS011;60776;51.702;7.462;2023-07-29T00:52:10;2.65;;;2.45;;
59233;SDS011;60776;51.702;7.462;2023-07-29T00:54:38;2.22;;;1.95;;
59233;SDS011;60776;51.702;7.462;2023-07-29T00:57:04;2.33;;;2.13;;
59233;SDS011;60776;51.702;7.462;2023-07-29T00:59:31;1.80;;;1.70;;
59233;SDS011;60776;51.702;7.462;2023-07-29T01:01:58;2.58;;;2.38;;
59233;SDS011;60776;51.702;7.462;2023-07-29T01:04:24;5.18;;;3.08;;
59233;SDS011;60776;51.702;7.462;2023-07-29T01:06:57;2.28;;;2.08;;
59233;SDS011;60776;51.702;7.462;2023-07-29T01:12:34;3.35;;;2.42;;
59233;SDS011;60776;51.702;7.462;2023-07-29T01:15:08;2.95;;;2.60;;
59233;SDS011;60776;51.702;7.462;2023-07-29T01:17:52;2.40;;;2.20;;
59233;SDS011;60776;51.702;7.462;2023-07-29T01:20:20;2.38;;;2.17;;
59233;SDS011;60776;51.702;7.462;2023-07-29T01:22:49;2.65;;;2.00;;
59233;SDS011;60776;51.702;7.462;2023-07-29T01:25:14;4.50;;;3.47;;
59233;SDS011;60776;51.702;7.462;2023-07-29T01:27:44;3.20;;;2.90;;
59233;SDS011;60776;51.702;7.462;2023-07-29T01:30:11;4.38;;;3.97;;
59233;SDS011;60776;51.702;7.462;2023-07-29T01:35:23;3.42;;;2.63;;
59233;SDS011;60776;51.702;7.462;2023-07-29T01:38:13;2.13;;;1.92;;
59233;SDS011;60776;51.702;7.462;2023-07-29T01:40:43;2.45;;;2.22;;
59233;SDS011;60776;51.702;7.462;2023-07-29T01:43:09;4.00;;;3.70;;
59233;SDS011;60776;51.702;7.462;2023-07-29T01:45:35;2.53;;;2.22;;
59233;SDS011;60776;51.702;7.462;2023-07-29T01:48:06;2.25;;;1.90;;
59233;SDS011;60776;51.702;7.462;2023-07-29T01:50:32;2.95;;;2.65;;
59233;SDS011;60776;51.702;7.462;2023-07-29T01:52:58;3.17;;;2.80;;
59233;SDS011;60776;51.702;7.462;2023-07-29T01:55:24;3.67;;;3.33;;
59233;SDS011;60776;51.702;7.462;2023-07-29T01:57:50;3.22;;;2.85;;
59233;SDS011;60776;51.702;7.462;2023-07-29T02:00:17;3.17;;;2.97;;
59233;SDS011;60776;51.702;7.462;2023-07-29T02:02:43;4.05;;;3.70;;
59233;SDS011;60776;51.702;7.462;2023-07-29T02:05:09;3.28;;;2.97;;
59233;SDS011;60776;51.702;7.462;2023-07-29T02:07:34;2.88;;;2.67;;
59233;SDS011;60776;51.702;7.462;2023-07-29T02:10:00;3.80;;;2.72;;
59233;SDS011;60776;51.702;7.462;2023-07-29T02:12:26;2.30;;;2.20;;
59233;SDS011;60776;51.702;7.462;2023-07-29T02:14:52;5.68;;;4.00;;
59233;SDS011;60776;51.702;7.462;2023-07-29T02:17:17;2.60;;;2.40;;
59233;SDS011;60776;51.702;7.462;2023-07-29T02:19:45;3.85;;;3.55;;
59233;SDS011;60776;51.702;7.462;2023-07-29T02:22:15;2.47;;;2.28;;
59233;SDS011;60776;51.702;7.462;2023-07-29T02:24:41;3.33;;;3.00;;
59233;SDS011;60776;51.702;7.462;2023-07-29T02:27:07;3.53;;;3.22;;
59233;SDS011;60776;51.702;7.462;2023-07-29T02:29:33;2.92;;;2.63;;
59233;SDS011;60776;51.702;7.462;2023-07-29T02:31:59;3.88;;;3.58;;
59233;SDS011;60776;51.702;7.462;2023-07-29T02:34:25;3.63;;;3.33;;
59233;SDS011;60776;51.702;7.462;2023-07-29T02:36:50;2.90;;;2.70;;
59233;SDS011;60776;51.702;7.462;2023-07-29T02:39:16;5.78;;;4.65;;
59233;SDS011;60776;51.702;7.462;2023-07-29T02:41:42;4.35;;;3.92;;
59233;SDS011;60776;51.702;7.462;2023-07-29T02:44:07;3.33;;;3.05;;
59233;SDS011;60776;51.702;7.462;2023-07-29T02:46:33;2.83;;;2.63;;
59233;SDS011;60776;51.702;7.462;2023-07-29T02:48:59;3.15;;;2.95;;
59233;SDS011;60776;51.702;7.462;2023-07-29T02:51:26;5.15;;;4.68;;
59233;SDS011;60776;51.702;7.462;2023-07-29T02:53:51;5.05;;;4.65;;
59233;SDS011;60776;51.702;7.462;2023-07-29T02:56:17;3.75;;;3.45;;
59233;SDS011;60776;51.702;7.462;2023-07-29T02:58:43;3.75;;;3.50;;
59233;SDS011;60776;51.702;7.462;2023-07-29T03:01:11;3.30;;;3.08;;
59233;SDS011;60776;51.702;7.462;2023-07-29T03:03:37;4.18;;;3.88;;
59233;SDS011;60776;51.702;7.462;2023-07-29T03:06:07;4.90;;;4.30;;
59233;SDS011;60776;51.702;7.462;2023-07-29T03:08:34;3.00;;;2.80;;
59233;SDS011;60776;51.702;7.462;2023-07-29T03:11:10;4.60;;;4.30;;
59233;SDS011;60776;51.702;7.462;2023-07-29T03:13:37;3.92;;;3.63;;
59233;SDS011;60776;51.702;7.462;2023-07-29T03:18:40;4.05;;;3.75;;
59233;SDS011;60776;51.702;7.462;2023-07-29T03:21:06;3.65;;;3.35;;
59233;SDS011;60776;51.702;7.462;2023-07-29T03:23:33;3.45;;;3.15;;
59233;SDS011;60776;51.702;7.462;2023-07-29T03:25:59;2.78;;;2.58;;
59233;SDS011;60776;51.702;7.462;2023-07-29T03:28:26;3.10;;;2.90;;
59233;SDS011;60776;51.702;7.462;2023-07-29T03:30:53;3.22;;;2.80;;
59233;SDS011;60776;51.702;7.462;2023-07-29T03:33:19;2.97;;;2.78;;
59233;SDS011;60776;51.702;7.462;2023-07-29T03:35:45;3.85;;;3.47;;
59233;SDS011;60776;51.702;7.462;2023-07-29T03:38:11;3.08;;;2.72;;
59233;SDS011;60776;51.702;7.462;2023-07-29T03:40:40;2.20;;;2.10;;
59233;SDS011;60776;51.702;7.462;2023-07-29T03:43:06;2.80;;;2.60;;
59233;SDS011;60776;51.702;7.462;2023-07-29T03:45:32;2.63;;;2.42;;
59233;SDS011;60776;51.702;7.462;2023-07-29T03:48:13;3.22;;;2.83;;
59233;SDS011;60776;51.702;7.462;2023-07-29T03:50:38;4.30;;;2.80;;
59233;SDS011;60776;51.702;7.462;2023-07-29T03:53:06;3.45;;;3.13;;
59233;SDS011;60776;51.702;7.462;2023-07-29T03:55:32;3.05;;;2.85;;
59233;SDS011;60776;51.702;7.462;2023-07-29T03:58:00;3.50;;;3.22;;
59233;SDS011;60776;51.702;7.462;2023-07-29T04:00:26;3.00;;;2.80;;
59233;SDS011;60776;51.702;7.462;2023-07-29T04:02:52;3.15;;;2.47;;
59233;SDS011;60776;51.702;7.462;2023-07-29T04:05:18;2.28;;;2.13;;
59233;SDS011;60776;51.702;7.462;2023-07-29T04:07:44;3.78;;;3.00;;
59233;SDS011;60776;51.702;7.462;2023-07-29T04:10:10;2.22;;;2.13;;
59233;SDS011;60776;51.702;7.462;2023-07-29T04:12:36;2.47;;;2.28;;
59233;SDS011;60776;51.702;7.462;2023-07-29T04:15:01;2.75;;;2.05;;
59233;SDS011;60776;51.702;7.462;2023-07-29T04:17:30;2.30;;;2.10;;
59233;SDS011;60776;51.702;7.462;2023-07-29T04:19:56;2.05;;;1.95;;
59233;SDS011;60776;51.702;7.462;2023-07-29T04:22:21;2.30;;;2.10;;
59233;SDS011;60776;51.702;7.462;2023-07-29T04:24:47;2.10;;;2.00;;
59233;SDS011;60776;51.702;7.462;2023-07-29T04:27:13;3.85;;;2.60;;
59233;SDS011;60776;51.702;7.462;2023-07-29T04:29:38;2.40;;;2.20;;
59233;SDS011;60776;51.702;7.462;2023-07-29T04:32:04;3.90;;;3.58;;
59233;SDS011;60776;51.702;7.462;2023-07-29T04:34:30;3.35;;;2.95;;
59233;SDS011;60776;51.702;7.462;2023-07-29T04:36:56;4.05;;;2.83;;
59233;SDS011;60776;51.702;7.462;2023-07-29T04:39:22;2.70;;;2.50;;
59233;SDS011;60776;51.702;7.462;2023-07-29T04:41:48;3.88;;;3.47;;
59233;SDS011;60776;51.702;7.462;2023-07-29T04:44:13;4.18;;;3.60;;
59233;SDS011;60776;51.702;7.462;2023-07-29T04:46:39;4.90;;;4.10;;
59233;SDS011;60776;51.702;7.462;2023-07-29T04:49:05;7.15;;;4.63;;
59233;SDS011;60776;51.702;7.462;2023-07-29T04:51:30;3.90;;;3.55;;
59233;SDS011;60776;51.702;7.462;2023-07-29T04:53:59;3.70;;;3.40;;
59233;SDS011;60776;51.702;7.462;2023-07-29T04:56:25;5.43;;;3.92;;
59233;SDS011;60776;51.702;7.462;2023-07-29T04:58:51;4.95;;;4.55;;
59233;SDS011;60776;51.702;7.462;2023-07-29T05:01:17;3.90;;;3.60;;
59233;SDS011;60776;51.702;7.462;2023-07-29T05:03:42;3.63;;;3.33;;
59233;SDS011;60776;51.702;7.462;2023-07-29T05:06:08;4.88;;;4.47;;
59233;SDS011;60776;51.702;7.462;2023-07-29T05:08:34;2.92;;;2.72;;
59233;SDS011;60776;51.702;7.462;2023-07-29T05:10:59;4.88;;;4.30;;
59233;SDS011;60776;51.702;7.462;2023-07-29T05:13:25;3.85;;;3.55;;
59233;SDS011;60776;51.702;7.462;2023-07-29T05:15:51;4.85;;;4.45;;
59233;SDS011;60776;51.702;7.462;2023-07-29T05:18:17;4.65;;;3.72;;
59233;SDS011;60776;51.702;7.462;2023-07-29T05:20:43;4.93;;;4.47;;
59233;SDS011;60776;51.702;7.462;2023-07-29T05:23:08;4.40;;;3.95;;
59233;SDS011;60776;51.702;7.462;2023-07-29T05:25:34;6.43;;;5.30;;
59233;SDS011;60776;51.702;7.462;2023-07-29T05:28:03;5.00;;;4.50;;
59233;SDS011;60776;51.702;7.462;2023-07-29T05:30:29;5.03;;;4.63;;
59233;SDS011;60776;51.702;7.462;2023-07-29T05:32:59;6.30;;;5.70;;
59233;SDS011;60776;51.702;7.462;2023-07-29T05:35:25;6.03;;;5.43;;
59233;SDS011;60776;51.702;7.462;2023-07-29T05:37:50;4.95;;;4.53;;
59233;SDS011;60776;51.702;7.462;2023-07-29T05:40:16;5.47;;;4.82;;
59233;SDS011;60776;51.702;7.462;2023-07-29T05:42:42;4.10;;;3.80;;
59233;SDS011;60776;51.702;7.462;2023-07-29T05:45:09;5.53;;;4.30;;
59233;SDS011;60776;51.702;7.462;2023-07-29T05:47:34;4.63;;;4.28;;
59233;SDS011;60776;51.702;7.462;2023-07-29T05:50:00;4.25;;;3.85;;
59233;SDS011;60776;51.702;7.462;2023-07-29T05:52:29;3.58;;;3.28;;
59233;SDS011;60776;51.702;7.462;2023-07-29T05:54:55;3.28;;;2.80;;
59233;SDS011;60776;51.702;7.462;2023-07-29T05:57:21;3.13;;;2.83;;
59233;SDS011;60776;51.702;7.462;2023-07-29T05:59:47;3.22;;;2.83;;
59233;SDS011;60776;51.702;7.462;2023-07-29T06:02:12;3.30;;;3.00;;
59233;SDS011;60776;51.702;7.462;2023-07-29T06:04:38;3.15;;;2.85;;
59233;SDS011;60776;51.702;7.462;2023-07-29T06:07:04;5.70;;;3.80;;
59233;SDS011;60776;51.702;7.462;2023-07-29T06:09:30;3.70;;;3.40;;
59233;SDS011;60776;51.702;7.462;2023-07-29T06:11:56;3.30;;;3.08;;
59233;SDS011;60776;51.702;7.462;2023-07-29T06:14:21;4.60;;;3.85;;
59233;SDS011;60776;51.702;7.462;2023-07-29T06:16:49;3.95;;;3.63;;
59233;SDS011;60776;51.702;7.462;2023-07-29T06:19:15;4.97;;;4.47;;
59233;SDS011;60776;51.702;7.462;2023-07-29T06:21:41;4.55;;;4.22;;
59233;SDS011;60776;51.702;7.462;2023-07-29T06:24:07;8.35;;;5.68;;
59233;SDS011;60776;51.702;7.462;2023-07-29T06:26:32;5.80;;;5.18;;
59233;SDS011;60776;51.702;7.462;2023-07-29T06:28:58;7.13;;;5.70;;
59233;SDS011;60776;51.702;7.462;2023-07-29T06:31:23;7.05;;;6.40;;
59233;SDS011;60776;51.702;7.462;2023-07-29T06:33:49;6.95;;;6.07;;
59233;SDS011;60776;51.702;7.462;2023-07-29T06:36:15;8.70;;;7.45;;
59233;SDS011;60776;51.702;7.462;2023-07-29T06:38:40;8.07;;;7.00;;
59233;SDS011;60776;51.702;7.462;2023-07-29T06:41:06;7.20;;;6.60;;
59233;SDS011;60776;51.702;7.462;2023-07-29T06:43:32;7.25;;;6.55;;
59233;SDS011;60776;51.702;7.462;2023-07-29T06:45:58;6.75;;;6.15;;
59233;SDS011;60776;51.702;7.462;2023-07-29T06:48:24;7.22;;;6.63;;
59233;SDS011;60776;51.702;7.462;2023-07-29T06:50:49;6.60;;;5.72;;
59233;SDS011;60776;51.702;7.462;2023-07-29T06:53:16;6.45;;;5.82;;
59233;SDS011;60776;51.702;7.462;2023-07-29T06:55:42;6.00;;;5.45;;
59233;SDS011;60776;51.702;7.462;2023-07-29T06:58:08;4.57;;;4.28;;
59233;SDS011;60776;51.702;7.462;2023-07-29T07:00:34;4.97;;;3.88;;
59233;SDS011;60776;51.702;7.462;2023-07-29T07:03:00;3.72;;;3.20;;
59233;SDS011;60776;51.702;7.462;2023-07-29T07:05:26;3.30;;;3.10;;
59233;SDS011;60776;51.702;7.462;2023-07-29T07:07:51;3.58;;;3.10;;
59233;SDS011;60776;51.702;7.462;2023-07-29T07:10:17;3.67;;;2.90;;
59233;SDS011;60776;51.702;7.462;2023-07-29T07:12:43;2.75;;;2.50;;
59233;SDS011;60776;51.702;7.462;2023-07-29T07:15:09;2.20;;;2.00;;
59233;SDS011;60776;51.702;7.462;2023-07-29T07:17:35;2.28;;;1.90;;
59233;SDS011;60776;51.702;7.462;2023-07-29T07:20:00;1.95;;;1.85;;
59233;SDS011;60776;51.702;7.462;2023-07-29T07:22:26;2.13;;;1.90;;
59233;SDS011;60776;51.702;7.462;2023-07-29T07:24:52;1.73;;;1.63;;
59233;SDS011;60776;51.702;7.462;2023-07-29T07:27:17;1.90;;;1.70;;
59233;SDS011;60776;51.702;7.462;2023-07-29T07:29:43;5.50;;;1.83;;
59233;SDS011;60776;51.702;7.462;2023-07-29T07:32:09;2.60;;;1.90;;
59233;SDS011;60776;51.702;7.462;2023-07-29T07:34:37;1.83;;;1.65;;
59233;SDS011;60776;51.702;7.462;2023-07-29T07:37:02;2.00;;;1.90;;
59233;SDS011;60776;51.702;7.462;2023-07-29T07:39:29;2.08;;;1.60;;
59233;SDS011;60776;51.702;7.462;2023-07-29T07:41:56;2.13;;;1.95;;
59233;SDS011;60776;51.702;7.462;2023-07-29T07:44:22;2.95;;;1.60;;
59233;SDS011;60776;51.702;7.462;2023-07-29T07:46:47;2.00;;;1.80;;
59233;SDS011;60776;51.702;7.462;2023-07-29T07:49:13;2.10;;;1.83;;
59233;SDS011;60776;51.702;7.462;2023-07-29T07:51:39;1.92;;;1.73;;
59233;SDS011;60776;51.702;7.462;2023-07-29T07:54:05;1.48;;;1.35;;
59233;SDS011;60776;51.702;7.462;2023-07-29T07:56:30;1.50;;;1.40;;
59233;SDS011;60776;51.702;7.462;2023-07-29T07:58:56;2.40;;;1.45;;
59233;SDS011;60776;51.702;7.462;2023-07-29T08:01:21;2.30;;;1.60;;
59233;SDS011;60776;51.702;7.462;2023-07-29T08:03:47;2.92;;;1.50;;
59233;SDS011;60776;51.702;7.462;2023-07-29T08:06:12;2.53;;;1.60;;
59233;SDS011;60776;51.702;7.462;2023-07-29T08:08:38;1.65;;;1.40;;
59233;SDS011;60776;51.702;7.462;2023-07-29T08:11:04;1.48;;;1.38;;
59233;SDS011;60776;51.702;7.462;2023-07-29T08:13:29;1.40;;;1.30;;
59233;SDS011;60776;51.702;7.462;2023-07-29T08:15:55;2.03;;;1.08;;
59233;SDS011;60776;51.702;7.462;2023-07-29T08:18:21;1.17;;;0.93;;
59233;SDS011;60776;51.702;7.462;2023-07-29T08:20:57;2.53;;;1.50;;
59233;SDS011;60776;51.702;7.462;2023-07-29T08:23:27;2.35;;;1.25;;
59233;SDS011;60776;51.702;7.462;2023-07-29T08:25:55;1.98;;;1.30;;
59233;SDS011;60776;51.702;7.462;2023-07-29T08:28:26;1.20;;;1.10;;
59233;SDS011;60776;51.702;7.462;2023-07-29T08:30:53;1.30;;;1.20;;
59233;SDS011;60776;51.702;7.462;2023-07-29T08:33:19;2.45;;;1.30;;
59233;SDS011;60776;51.702;7.462;2023-07-29T08:35:44;1.20;;;1.20;;
59233;SDS011;60776;51.702;7.462;2023-07-29T08:38:10;1.30;;;1.20;;
59233;SDS011;60776;51.702;7.462;2023-07-29T08:40:37;1.45;;;1.30;;
59233;SDS011;60776;51.702;7.462;2023-07-29T08:43:06;1.77;;;1.42;;
59233;SDS011;60776;51.702;7.462;2023-07-29T08:45:34;1.25;;;1.15;;
59233;SDS011;60776;51.702;7.462;2023-07-29T08:48:06;1.60;;;1.25;;
59233;SDS011;60776;51.702;7.462;2023-07-29T08:50:35;2.75;;;1.77;;
59233;SDS011;60776;51.702;7.462;2023-07-29T08:53:03;1.40;;;1.30;;
59233;SDS011;60776;51.702;7.462;2023-07-29T08:55:30;3.03;;;1.77;;
59233;SDS011;60776;51.702;7.462;2023-07-29T08:57:57;2.85;;;1.48;;
59233;SDS011;60776;51.702;7.462;2023-07-29T09:00:26;3.25;;;1.83;;
59233;SDS011;60776;51.702;7.462;2023-07-29T09:02:52;3.38;;;1.67;;
59233;SDS011;60776;51.702;7.462;2023-07-29T09:05:19;2.10;;;1.42;;
59233;SDS011;60776;51.702;7.462;2023-07-29T09:07:46;1.85;;;1.63;;
59233;SDS011;60776;51.702;7.462;2023-07-29T09:10:13;4.43;;;1.77;;
59233;SDS011;60776;51.702;7.462;2023-07-29T09:12:39;2.35;;;1.90;;
59233;SDS011;60776;51.702;7.462;2023-07-29T09:15:05;3.17;;;1.45;;
59233;SDS011;60776;51.702;7.462;2023-07-29T09:17:32;1.80;;;1.48;;
59233;SDS011;60776;51.702;7.462;2023-07-29T09:19:58;1.92;;;1.48;;
59233;SDS011;60776;51.702;7.462;2023-07-29T09:22:24;1.40;;;1.30;;
59233;SDS011;60776;51.702;7.462;2023-07-29T09:24:52;1.80;;;1.48;;
59233;SDS011;60776;51.702;7.462;2023-07-29T09:27:24;1.15;;;1.05;;
59233;SDS011;60776;51.702;7.462;2023-07-29T09:29:52;2.40;;;1.17;;
59233;SDS011;60776;51.702;7.462;2023-07-29T09:32:18;1.85;;;1.10;;
59233;SDS011;60776;51.702;7.462;2023-07-29T09:34:45;1.83;;;1.30;;
59233;SDS011;60776;51.702;7.462;2023-07-29T09:37:15;1.42;;;1.20;;
59233;SDS011;60776;51.702;7.462;2023-07-29T09:39:47;1.38;;;1.05;;
59233;SDS011;60776;51.702;7.462;2023-07-29T09:42:17;1.70;;;1.33;;
59233;SDS011;60776;51.702;7.462;2023-07-29T09:44:48;1.65;;;1.40;;
59233;SDS011;60776;51.702;7.462;2023-07-29T09:47:19;1.55;;;1.10;;
59233;SDS011;60776;51.702;7.462;2023-07-29T09:49:46;1.88;;;1.00;;
59233;SDS011;60776;51.702;7.462;2023-07-29T09:52:13;0.90;;;0.90;;
59233;SDS011;60776;51.702;7.462;2023-07-29T09:54:41;1.20;;;1.10;;
59233;SDS011;60776;51.702;7.462;2023-07-29T09:57:08;3.08;;;1.20;;
59233;SDS011;60776;51.702;7.462;2023-07-29T09:59:34;2.10;;;1.20;;
59233;SDS011;60776;51.702;7.462;2023-07-29T10:01:59;0.88;;;0.88;;
59233;SDS011;60776;51.702;7.462;2023-07-29T10:04:25;1.88;;;0.90;;
59233;SDS011;60776;51.702;7.462;2023-07-29T10:06:52;2.03;;;1.00;;
59233;SDS011;60776;51.702;7.462;2023-07-29T10:09:18;2.78;;;0.98;;
59233;SDS011;60776;51.702;7.462;2023-07-29T10:11:45;0.98;;;0.95;;
59233;SDS011;60776;51.702;7.462;2023-07-29T10:14:11;1.17;;;1.08;;
59233;SDS011;60776;51.702;7.462;2023-07-29T10:16:38;1.08;;;0.98;;
59233;SDS011;60776;51.702;7.462;2023-07-29T10:19:07;1.10;;;1.00;;
59233;SDS011;60776;51.702;7.462;2023-07-29T10:21:35;0.80;;;0.80;;
59233;SDS011;60776;51.702;7.462;2023-07-29T10:24:04;1.40;;;0.98;;
59233;SDS011;60776;51.702;7.462;2023-07-29T10:26:34;1.20;;;1.10;;
59233;SDS011;60776;51.702;7.462;2023-07-29T10:29:02;1.38;;;1.25;;
59233;SDS011;60776;51.702;7.462;2023-07-29T10:31:33;1.95;;;0.95;;
59233;SDS011;60776;51.702;7.462;2023-07-29T10:34:00;0.80;;;0.80;;
59233;SDS011;60776;51.702;7.462;2023-07-29T10:36:26;1.15;;;1.00;;
59233;SDS011;60776;51.702;7.462;2023-07-29T10:38:53;1.55;;;0.82;;
59233;SDS011;60776;51.702;7.462;2023-07-29T10:41:19;0.73;;;0.73;;
59233;SDS011;60776;51.702;7.462;2023-07-29T10:43:47;1.40;;;1.02;;
59233;SDS011;60776;51.702;7.462;2023-07-29T10:46:19;1.30;;;1.05;;
59233;SDS011;60776;51.702;7.462;2023-07-29T10:54:00;1.10;;;1.00;;
59233;SDS011;60776;51.702;7.462;2023-07-29T10:56:48;1.73;;;1.20;;
59233;SDS011;60776;51.702;7.462;2023-07-29T11:01:53;1.20;;;1.10;;
59233;SDS011;60776;51.702;7.462;2023-07-29T11:12:35;2.55;;;1.27;;
59233;SDS011;60776;51.702;7.462;2023-07-29T11:15:14;2.92;;;1.30;;
59233;SDS011;60776;51.702;7.462;2023-07-29T11:17:49;1.10;;;1.00;;
59233;SDS011;60776;51.702;7.462;2023-07-29T11:20:20;1.88;;;1.25;;
59233;SDS011;60776;51.702;7.462;2023-07-29T11:22:47;1.50;;;1.17;;
59233;SDS011;60776;51.702;7.462;2023-07-29T11:25:14;1.48;;;1.23;;
59233;SDS011;60776;51.702;7.462;2023-07-29T11:27:41;2.67;;;1.20;;
59233;SDS011;60776;51.702;7.462;2023-07-29T11:30:08;1.20;;;1.10;;
59233;SDS011;60776;51.702;7.462;2023-07-29T11:32:35;1.95;;;1.20;;
59233;SDS011;60776;51.702;7.462;2023-07-29T11:37:36;1.30;;;1.20;;
59233;SDS011;60776;51.702;7.462;2023-07-29T11:40:02;2.35;;;1.10;;
59233;SDS011;60776;51.702;7.462;2023-07-29T11:42:31;1.35;;;1.25;;
59233;SDS011;60776;51.702;7.462;2023-07-29T11:44:58;1.55;;;0.90;;
59233;SDS011;60776;51.702;7.462;2023-07-29T11:47:24;1.17;;;1.00;;
59233;SDS011;60776;51.702;7.462;2023-07-29T11:49:50;1.23;;;1.00;;
59233;SDS011;60776;51.702;7.462;2023-07-29T11:52:15;2.45;;;1.38;;
59233;SDS011;60776;51.702;7.462;2023-07-29T11:54:45;1.00;;;1.00;;
59233;SDS011;60776;51.702;7.462;2023-07-29T11:57:17;0.88;;;0.80;;
59233;SDS011;60776;51.702;7.462;2023-07-29T11:59:43;2.05;;;1.08;;
59233;SDS011;60776;51.702;7.462;2023-07-29T12:02:11;1.65;;;1.40;;
59233;SDS011;60776;51.702;7.462;2023-07-29T12:04:38;3.28;;;2.00;;
59233;SDS011;60776;51.702;7.462;2023-07-29T12:07:04;1.50;;;1.40;;
59233;SDS011;60776;51.702;7.462;2023-07-29T12:09:31;2.63;;;1.45;;
59233;SDS011;60776;51.702;7.462;2023-07-29T12:11:57;1.45;;;1.25;;
59233;SDS011;60776;51.702;7.462;2023-07-29T12:14:30;1.33;;;1.23;;
59233;SDS011;60776;51.702;7.462;2023-07-29T12:16:56;1.83;;;1.38;;
59233;SDS011;60776;51.702;7.462;2023-07-29T12:19:30;1.60;;;1.50;;
59233;SDS011;60776;51.702;7.462;2023-07-29T12:22:03;1.50;;;1.35;;
59233;SDS011;60776;51.702;7.462;2023-07-29T12:24:31;2.05;;;1.27;;
59233;SDS011;60776;51.702;7.462;2023-07-29T12:26:58;1.40;;;1.30;;
59233;SDS011;60776;51.702;7.462;2023-07-29T12:29:24;2.85;;;1.10;;
59233;SDS011;60776;51.702;7.462;2023-07-29T12:32:03;2.75;;;1.30;;
59233;SDS011;60776;51.702;7.462;2023-07-29T12:34:30;1.13;;;1.13;;
59233;SDS011;60776;51.702;7.462;2023-07-29T12:36:57;1.63;;;1.20;;
59233;SDS011;60776;51.702;7.462;2023-07-29T12:39:27;1.40;;;1.30;;
59233;SDS011;60776;51.702;7.462;2023-07-29T12:41:56;2.03;;;1.70;;
59233;SDS011;60776;51.702;7.462;2023-07-29T12:44:23;1.33;;;1.23;;
59233;SDS011;60776;51.702;7.462;2023-07-29T12:46:50;1.40;;;1.30;;
59233;SDS011;60776;51.702;7.462;2023-07-29T12:49:16;1.60;;;1.50;;
59233;SDS011;60776;51.702;7.462;2023-07-29T12:51:42;1.23;;;1.13;;
59233;SDS011;60776;51.702;7.462;2023-07-29T12:54:08;1.60;;;1.23;;
59233;SDS011;60776;51.702;7.462;2023-07-29T12:56:33;1.98;;;1.42;;
59233;SDS011;60776;51.702;7.462;2023-07-29T12:59:00;1.40;;;1.30;;
59233;SDS011;60776;51.702;7.462;2023-07-29T13:01:26;1.70;;;1.50;;
59233;SDS011;60776;51.702;7.462;2023-07-29T13:03:53;2.55;;;1.98;;
59233;SDS011;60776;51.702;7.462;2023-07-29T13:06:19;2.30;;;1.40;;
59233;SDS011;60776;51.702;7.462;2023-07-29T13:08:45;3.03;;;1.50;;
59233;SDS011;60776;51.702;7.462;2023-07-29T13:11:11;2.67;;;1.50;;
59233;SDS011;60776;51.702;7.462;2023-07-29T13:13:37;1.35;;;1.25;;
59233;SDS011;60776;51.702;7.462;2023-07-29T13:16:03;1.40;;;1.30;;
59233;SDS011;60776;51.702;7.462;2023-07-29T13:18:28;2.03;;;1.20;;
59233;SDS011;60776;51.702;7.462;2023-07-29T13:20:54;1.35;;;1.10;;
59233;SDS011;60776;51.702;7.462;2023-07-29T13:23:20;1.42;;;1.33;;
59233;SDS011;60776;51.702;7.462;2023-07-29T13:25:46;1.50;;;1.40;;
59233;SDS011;60776;51.702;7.462;2023-07-29T13:28:12;1.70;;;1.40;;
59233;SDS011;60776;51.702;7.462;2023-07-29T13:30:38;2.65;;;1.30;;
59233;SDS011;60776;51.702;7.462;2023-07-29T13:33:07;1.48;;;1.38;;
59233;SDS011;60776;51.702;7.462;2023-07-29T13:35:33;2.35;;;1.52;;
59233;SDS011;60776;51.702;7.462;2023-07-29T13:37:59;1.27;;;1.17;;
59233;SDS011;60776;51.702;7.462;2023-07-29T13:40:25;1.23;;;1.17;;
59233;SDS011;60776;51.702;7.462;2023-07-29T13:42:51;1.38;;;1.20;;
59233;SDS011;60776;51.702;7.462;2023-07-29T13:45:17;1.40;;;1.30;;
59233;SDS011;60776;51.702;7.462;2023-07-29T13:47:45;2.88;;;1.70;;
59233;SDS011;60776;51.702;7.462;2023-07-29T13:50:11;3.22;;;1.98;;
59233;SDS011;60776;51.702;7.462;2023-07-29T13:52:37;3.00;;;2.17;;
59233;SDS011;60776;51.702;7.462;2023-07-29T13:55:03;2.25;;;1.85;;
59233;SDS011;60776;51.702;7.462;2023-07-29T13:57:30;2.03;;;1.85;;
59233;SDS011;60776;51.702;7.462;2023-07-29T13:59:56;2.28;;;1.50;;
59233;SDS011;60776;51.702;7.462;2023-07-29T14:02:22;2.35;;;1.77;;
59233;SDS011;60776;51.702;7.462;2023-07-29T14:04:48;1.70;;;1.40;;
59233;SDS011;60776;51.702;7.462;2023-07-29T14:07:13;2.08;;;1.40;;
59233;SDS011;60776;51.702;7.462;2023-07-29T14:09:39;2.95;;;1.60;;
59233;SDS011;60776;51.702;7.462;2023-07-29T14:12:05;1.73;;;1.55;;
59233;SDS011;60776;51.702;7.462;2023-07-29T14:14:31;2.38;;;1.88;;
59233;SDS011;60776;51.702;7.462;2023-07-29T14:16:57;1.77;;;1.67;;
59233;SDS011;60776;51.702;7.462;2023-07-29T14:19:23;1.92;;;1.77;;
59233;SDS011;60776;51.702;7.462;2023-07-29T14:21:49;2.60;;;1.73;;
59233;SDS011;60776;51.702;7.462;2023-07-29T14:24:14;2.25;;;1.50;;
59233;SDS011;60776;51.702;7.462;2023-07-29T14:26:41;6.15;;;2.58;;
59233;SDS011;60776;51.702;7.462;2023-07-29T14:29:07;6.68;;;1.90;;
59233;SDS011;60776;51.702;7.462;2023-07-29T14:31:33;6.65;;;2.20;;
59233;SDS011;60776;51.702;7.462;2023-07-29T14:33:58;4.95;;;1.80;;
59233;SDS011;60776;51.702;7.462;2023-07-29T14:36:24;4.05;;;1.90;;
59233;SDS011;60776;51.702;7.462;2023-07-29T14:38:53;6.93;;;1.98;;
59233;SDS011;60776;51.702;7.462;2023-07-29T14:41:18;7.95;;;2.70;;
59233;SDS011;60776;51.702;7.462;2023-07-29T14:43:44;16.83;;;4.20;;
59233;SDS011;60776;51.702;7.462;2023-07-29T14:46:10;22.17;;;7.40;;
59233;SDS011;60776;51.702;7.462;2023-07-29T14:48:35;5.13;;;2.22;;
59233;SDS011;60776;51.702;7.462;2023-07-29T14:51:03;4.00;;;2.88;;
59233;SDS011;60776;51.702;7.462;2023-07-29T14:53:32;4.55;;;3.10;;
59233;SDS011;60776;51.702;7.462;2023-07-29T14:55:57;3.83;;;2.97;;
59233;SDS011;60776;51.702;7.462;2023-07-29T14:58:23;12.23;;;5.82;;
59233;SDS011;60776;51.702;7.462;2023-07-29T15:00:50;7.28;;;3.60;;
59233;SDS011;60776;51.702;7.462;2023-07-29T15:03:16;3.40;;;2.50;;
59233;SDS011;60776;51.702;7.462;2023-07-29T15:05:42;3.10;;;2.20;;
59233;SDS011;60776;51.702;7.462;2023-07-29T15:08:08;3.60;;;2.25;;
59233;SDS011;60776;51.702;7.462;2023-07-29T15:10:36;5.03;;;2.90;;
59233;SDS011;60776;51.702;7.462;2023-07-29T15:13:02;3.97;;;3.00;;